sensor_id;sensor_type;location;lat;lon;timestamp;pressure;altitude;pressure_sealevel;temperature;humidity
72587;BME280;60621;49.576;11.024;2023-04-09T00:00:13;99103.44;;;8.78;68.89
72587;BME280;60621;49.576;11.024;2023-04-09T00:01:15;99099.75;;;8.79;69.10
72587;BME280;60621;49.576;11.024;2023-04-09T00:02:16;99104.53;;;8.77;68.60
72587;BME280;60621;49.576;11.024;2023-04-09T00:03:18;99096.97;;;8.76;68.93
72587;BME280;60621;49.576;11.024;2023-04-09T00:04:19;99102.25;;;8.76;69.45
72587;BME280;60621;49.576;11.024;2023-04-09T00:05:22;99096.22;;;8.75;69.39
72587;BME280;60621;49.576;11.024;2023-04-09T00:06:24;99099.63;;;8.76;69.48
72587;BME280;60621;49.576;11.024;2023-04-09T00:07:26;99097.31;;;8.74;69.58
72587;BME280;60621;49.576;11.024;2023-04-09T00:08:28;99098.06;;;8.75;69.41
72587;BME280;60621;49.576;11.024;2023-04-09T00:09:29;99091.28;;;8.74;69.78
72587;BME280;60621;49.576;11.024;2023-04-09T00:10:31;99094.97;;;8.72;69.58
72587;BME280;60621;49.576;11.024;2023-04-09T00:11:32;99096.41;;;8.70;69.45
72587;BME280;60621;49.576;11.024;2023-04-09T00:12:34;99098.91;;;8.66;69.53
72587;BME280;60621;49.576;11.024;2023-04-09T00:13:35;99100.00;;;8.65;69.45
72587;BME280;60621;49.576;11.024;2023-04-09T00:14:40;99094.88;;;8.69;69.95
72587;BME280;60621;49.576;11.024;2023-04-09T00:15:41;99096.84;;;8.72;69.68
72587;BME280;60621;49.576;11.024;2023-04-09T00:16:43;99099.47;;;8.72;69.72
72587;BME280;60621;49.576;11.024;2023-04-09T00:17:45;99094.22;;;8.72;69.43
72587;BME280;60621;49.576;11.024;2023-04-09T00:18:46;99096.09;;;8.71;69.44
72587;BME280;60621;49.576;11.024;2023-04-09T00:19:48;99095.50;;;8.66;69.54
72587;BME280;60621;49.576;11.024;2023-04-09T00:20:49;99098.47;;;8.64;69.61
72587;BME280;60621;49.576;11.024;2023-04-09T00:21:51;99098.47;;;8.64;69.64
72587;BME280;60621;49.576;11.024;2023-04-09T00:22:53;99095.03;;;8.64;69.57
72587;BME280;60621;49.576;11.024;2023-04-09T00:23:56;99096.16;;;8.63;69.55
72587;BME280;60621;49.576;11.024;2023-04-09T00:24:58;99093.50;;;8.63;69.90
72587;BME280;60621;49.576;11.024;2023-04-09T00:25:59;99092.41;;;8.64;69.37
72587;BME280;60621;49.576;11.024;2023-04-09T00:27:01;99094.75;;;8.65;69.75
72587;BME280;60621;49.576;11.024;2023-04-09T00:28:02;99090.25;;;8.66;69.86
72587;BME280;60621;49.576;11.024;2023-04-09T00:29:04;99094.75;;;8.65;69.25
72587;BME280;60621;49.576;11.024;2023-04-09T00:30:06;99100.00;;;8.65;69.07
72587;BME280;60621;49.576;11.024;2023-04-09T00:31:09;99092.13;;;8.65;69.31
72587;BME280;60621;49.576;11.024;2023-04-09T00:32:11;99096.16;;;8.63;69.67
72587;BME280;60621;49.576;11.024;2023-04-09T00:33:12;99097.69;;;8.64;69.26
72587;BME280;60621;49.576;11.024;2023-04-09T00:34:14;99100.31;;;8.64;69.02
72587;BME280;60621;49.576;11.024;2023-04-09T00:35:16;99107.13;;;8.65;69.33
72587;BME280;60621;49.576;11.024;2023-04-09T00:36:17;99096.28;;;8.66;68.91
72587;BME280;60621;49.576;11.024;2023-04-09T00:37:19;99099.25;;;8.65;68.93
72587;BME280;60621;49.576;11.024;2023-04-09T00:38:20;99097.69;;;8.64;69.06
72587;BME280;60621;49.576;11.024;2023-04-09T00:39:22;99093.50;;;8.63;69.02
72587;BME280;60621;49.576;11.024;2023-04-09T00:40:24;99100.31;;;8.64;69.01
72587;BME280;60621;49.576;11.024;2023-04-09T00:41:25;99097.69;;;8.64;69.55
72587;BME280;60621;49.576;11.024;2023-04-09T00:42:30;99095.19;;;8.67;69.17
72587;BME280;60621;49.576;11.024;2023-04-09T00:43:32;99096.09;;;8.71;69.13
72587;BME280;60621;49.576;11.024;2023-04-09T00:44:34;99097.63;;;8.72;69.46
72587;BME280;60621;49.576;11.024;2023-04-09T00:45:36;99087.44;;;8.71;68.90
72587;BME280;60621;49.576;11.024;2023-04-09T00:46:38;99094.56;;;8.70;69.18
72587;BME280;60621;49.576;11.024;2023-04-09T00:47:40;99096.72;;;8.68;69.20
72587;BME280;60621;49.576;11.024;2023-04-09T00:48:43;99087.28;;;8.67;69.56
72587;BME280;60621;49.576;11.024;2023-04-09T00:49:45;99096.28;;;8.66;68.84
72587;BME280;60621;49.576;11.024;2023-04-09T00:50:46;99095.03;;;8.64;69.30
72587;BME280;60621;49.576;11.024;2023-04-09T00:51:49;99100.78;;;8.66;69.91
72587;BME280;60621;49.576;11.024;2023-04-09T00:52:51;99091.97;;;8.62;68.93
72587;BME280;60621;49.576;11.024;2023-04-09T00:53:53;99096.81;;;8.60;69.29
72587;BME280;60621;49.576;11.024;2023-04-09T00:54:55;99095.25;;;8.59;69.00
72587;BME280;60621;49.576;11.024;2023-04-09T00:55:57;99091.75;;;8.55;69.37
72587;BME280;60621;49.576;11.024;2023-04-09T00:56:59;99088.31;;;8.54;69.17
72587;BME280;60621;49.576;11.024;2023-04-09T00:58:01;99093.56;;;8.54;69.12
72587;BME280;60621;49.576;11.024;2023-04-09T00:59:03;99093.13;;;8.52;69.38
72587;BME280;60621;49.576;11.024;2023-04-09T01:00:05;99095.75;;;8.52;69.31
72587;BME280;60621;49.576;11.024;2023-04-09T01:01:08;99092.56;;;8.46;69.15
72587;BME280;60621;49.576;11.024;2023-04-09T01:02:09;99094.16;;;8.39;69.49
72587;BME280;60621;49.576;11.024;2023-04-09T01:03:11;99103.91;;;8.38;70.01
72587;BME280;60621;49.576;11.024;2023-04-09T01:04:13;99093.84;;;8.40;69.93
72587;BME280;60621;49.576;11.024;2023-04-09T01:05:15;99092.28;;;8.39;69.83
72587;BME280;60621;49.576;11.024;2023-04-09T01:07:56;99087.59;;;8.45;69.77
72587;BME280;60621;49.576;11.024;2023-04-09T01:09:11;99095.19;;;8.46;70.28
72587;BME280;60621;49.576;11.024;2023-04-09T01:10:35;99089.16;;;8.46;69.73
72587;BME280;60621;49.576;11.024;2023-04-09T01:11:58;99093.97;;;8.44;69.31
72587;BME280;60621;49.576;11.024;2023-04-09T01:13:17;99090.91;;;8.42;69.77
72587;BME280;60621;49.576;11.024;2023-04-09T01:15:43;99088.47;;;8.37;69.68
72587;BME280;60621;49.576;11.024;2023-04-09T01:16:54;99093.84;;;8.40;69.77
72587;BME280;60621;49.576;11.024;2023-04-09T01:18:16;99086.41;;;8.42;69.91
72587;BME280;60621;49.576;11.024;2023-04-09T01:19:40;99088.59;;;8.40;70.09
72587;BME280;60621;49.576;11.024;2023-04-09T01:20:55;99090.13;;;8.41;70.05
72587;BME280;60621;49.576;11.024;2023-04-09T01:21:58;99090.56;;;8.43;70.06
72587;BME280;60621;49.576;11.024;2023-04-09T01:23:10;99083.16;;;8.45;70.27
72587;BME280;60621;49.576;11.024;2023-04-09T01:24:35;99090.84;;;8.51;69.88
72587;BME280;60621;49.576;11.024;2023-04-09T01:25:49;99093.78;;;8.49;70.01
72587;BME280;60621;49.576;11.024;2023-04-09T01:27:05;99083.25;;;8.49;69.68
72587;BME280;60621;49.576;11.024;2023-04-09T01:28:22;99086.97;;;8.48;70.16
72587;BME280;60621;49.576;11.024;2023-04-09T01:29:29;99084.97;;;8.45;69.98
72587;BME280;60621;49.576;11.024;2023-04-09T01:30:31;99087.94;;;8.43;70.30
72587;BME280;60621;49.576;11.024;2023-04-09T01:31:36;99084.53;;;8.43;69.76
72587;BME280;60621;49.576;11.024;2023-04-09T01:32:39;99083.63;;;8.39;70.12
72587;BME280;60621;49.576;11.024;2023-04-09T01:33:41;99082.88;;;8.38;70.47
72587;BME280;60621;49.576;11.024;2023-04-09T01:34:45;99085.81;;;8.37;70.15
72587;BME280;60621;49.576;11.024;2023-04-09T01:35:48;99086.72;;;8.41;70.35
72587;BME280;60621;49.576;11.024;2023-04-09T01:36:54;99086.72;;;8.41;70.25
72587;BME280;60621;49.576;11.024;2023-04-09T01:37:57;99085.63;;;8.42;70.11
72587;BME280;60621;49.576;11.024;2023-04-09T01:39:02;99089.66;;;8.39;70.42
72587;BME280;60621;49.576;11.024;2023-04-09T01:40:04;99090.44;;;8.40;70.99
72587;BME280;60621;49.576;11.024;2023-04-09T01:41:06;99092.00;;;8.41;70.37
72587;BME280;60621;49.576;11.024;2023-04-09T01:42:09;99089.47;;;8.44;70.05
72587;BME280;60621;49.576;11.024;2023-04-09T01:43:13;99089.78;;;8.43;69.82
72587;BME280;60621;49.576;11.024;2023-04-09T01:44:16;99085.78;;;8.45;70.57
72587;BME280;60621;49.576;11.024;2023-04-09T01:45:19;99085.13;;;8.49;70.19
72587;BME280;60621;49.576;11.024;2023-04-09T01:46:21;99088.84;;;8.48;69.88
72587;BME280;60621;49.576;11.024;2023-04-09T01:47:25;99081.91;;;8.43;69.82
72587;BME280;60621;49.576;11.024;2023-04-09T01:48:29;99080.38;;;8.42;70.31
72587;BME280;60621;49.576;11.024;2023-04-09T01:49:31;99087.03;;;8.39;70.54
72587;BME280;60621;49.576;11.024;2023-04-09T01:50:34;99088.25;;;8.42;70.30
72587;BME280;60621;49.576;11.024;2023-04-09T01:51:36;99092.28;;;8.39;70.56
72587;BME280;60621;49.576;11.024;2023-04-09T01:52:38;99084.09;;;8.41;70.63
72587;BME280;60621;49.576;11.024;2023-04-09T01:53:40;99090.91;;;8.42;70.24
72587;BME280;60621;49.576;11.024;2023-04-09T01:54:42;99090.22;;;8.45;70.59
72587;BME280;60621;49.576;11.024;2023-04-09T01:55:43;99088.41;;;8.45;70.16
72587;BME280;60621;49.576;11.024;2023-04-09T01:56:46;99094.88;;;8.48;69.92
72587;BME280;60621;49.576;11.024;2023-04-09T01:57:48;99092.22;;;8.48;70.42
72587;BME280;60621;49.576;11.024;2023-04-09T01:58:50;99090.38;;;8.49;70.07
72587;BME280;60621;49.576;11.024;2023-04-09T01:59:53;99086.22;;;8.48;70.11
72587;BME280;60621;49.576;11.024;2023-04-09T02:00:59;99094.09;;;8.48;70.48
72587;BME280;60621;49.576;11.024;2023-04-09T02:02:09;99090.91;;;8.42;69.85
72587;BME280;60621;49.576;11.024;2023-04-09T02:03:17;99083.34;;;8.40;70.54
72587;BME280;60621;49.576;11.024;2023-04-09T02:04:29;99091.53;;;8.39;70.64
72587;BME280;60621;49.576;11.024;2023-04-09T02:05:39;99091.84;;;8.37;70.40
72587;BME280;60621;49.576;11.024;2023-04-09T02:08:02;99090.13;;;8.41;71.12
72587;BME280;60621;49.576;11.024;2023-04-09T02:09:07;99084.53;;;8.43;71.02
72587;BME280;60621;49.576;11.024;2023-04-09T02:10:10;99090.59;;;8.35;70.70
72587;BME280;60621;49.576;11.024;2023-04-09T02:11:14;99092.44;;;8.34;71.25
72587;BME280;60621;49.576;11.024;2023-04-09T02:12:17;99090.78;;;8.30;70.58
72587;BME280;60621;49.576;11.024;2023-04-09T02:13:20;99091.09;;;8.28;71.06
72587;BME280;60621;49.576;11.024;2023-04-09T02:14:23;99097.13;;;8.29;71.12
72587;BME280;60621;49.576;11.024;2023-04-09T02:15:27;99096.81;;;8.30;70.48
72587;BME280;60621;49.576;11.024;2023-04-09T02:16:30;99090.00;;;8.29;70.63
72587;BME280;60621;49.576;11.024;2023-04-09T02:17:32;99095.94;;;8.26;71.21
72587;BME280;60621;49.576;11.024;2023-04-09T02:18:34;99095.00;;;8.22;71.10
72587;BME280;60621;49.576;11.024;2023-04-09T02:19:43;99090.06;;;8.20;70.97
72587;BME280;60621;49.576;11.024;2023-04-09T02:20:45;99095.47;;;8.24;71.20
72587;BME280;60621;49.576;11.024;2023-04-09T02:21:46;99088.53;;;8.19;71.12
72587;BME280;60621;49.576;11.024;2023-04-09T02:22:48;99091.63;;;8.21;71.26
72587;BME280;60621;49.576;11.024;2023-04-09T02:23:49;99092.06;;;8.24;70.73
72587;BME280;60621;49.576;11.024;2023-04-09T02:24:51;99086.81;;;8.24;70.68
72587;BME280;60621;49.576;11.024;2023-04-09T02:25:52;99093.94;;;8.23;70.91
72587;BME280;60621;49.576;11.024;2023-04-09T02:26:54;99091.28;;;8.23;70.55
72587;BME280;60621;49.576;11.024;2023-04-09T02:27:56;99085.91;;;8.19;70.87
72587;BME280;60621;49.576;11.024;2023-04-09T02:28:57;99092.56;;;8.17;71.13
72587;BME280;60621;49.576;11.024;2023-04-09T02:29:58;99095.22;;;8.17;70.90
72587;BME280;60621;49.576;11.024;2023-04-09T02:31:00;99092.88;;;8.15;70.88
72587;BME280;60621;49.576;11.024;2023-04-09T02:32:02;99091.34;;;8.14;70.75
72587;BME280;60621;49.576;11.024;2023-04-09T02:33:03;99096.94;;;8.13;70.17
72587;BME280;60621;49.576;11.024;2023-04-09T02:34:05;99093.72;;;8.07;70.47
72587;BME280;60621;49.576;11.024;2023-04-09T02:35:06;99091.19;;;8.11;71.57
72587;BME280;60621;49.576;11.024;2023-04-09T02:36:11;99088.91;;;8.09;70.88
72587;BME280;60621;49.576;11.024;2023-04-09T02:37:13;99088.28;;;8.12;71.19
72587;BME280;60621;49.576;11.024;2023-04-09T02:38:15;99090.13;;;8.12;70.79
72587;BME280;60621;49.576;11.024;2023-04-09T02:39:16;99089.47;;;8.15;71.03
72587;BME280;60621;49.576;11.024;2023-04-09T02:40:18;99090.13;;;8.12;70.47
72587;BME280;60621;49.576;11.024;2023-04-09T02:41:20;99087.81;;;8.10;71.30
72587;BME280;60621;49.576;11.024;2023-04-09T02:42:21;99087.50;;;8.12;71.36
72587;BME280;60621;49.576;11.024;2023-04-09T02:43:23;99087.19;;;8.13;70.75
72587;BME280;60621;49.576;11.024;2023-04-09T02:44:24;99083.78;;;8.13;71.16
72587;BME280;60621;49.576;11.024;2023-04-09T02:45:26;99083.78;;;8.13;71.24
72587;BME280;60621;49.576;11.024;2023-04-09T02:46:28;99088.38;;;8.16;70.84
72587;BME280;60621;49.576;11.024;2023-04-09T02:47:30;99087.94;;;8.14;70.94
72587;BME280;60621;49.576;11.024;2023-04-09T02:48:31;99080.38;;;8.12;71.13
72587;BME280;60621;49.576;11.024;2023-04-09T02:49:33;99084.88;;;8.12;71.04
72587;BME280;60621;49.576;11.024;2023-04-09T02:50:35;99084.56;;;8.13;71.13
72587;BME280;60621;49.576;11.024;2023-04-09T02:51:36;99090.00;;;8.08;70.38
72587;BME280;60621;49.576;11.024;2023-04-09T02:52:38;99081.97;;;8.05;71.11
72587;BME280;60621;49.576;11.024;2023-04-09T02:53:39;99089.41;;;8.03;70.66
72587;BME280;60621;49.576;11.024;2023-04-09T02:54:42;99087.41;;;8.00;70.63
72587;BME280;60621;49.576;11.024;2023-04-09T02:55:43;99090.81;;;8.00;70.61
72587;BME280;60621;49.576;11.024;2023-04-09T02:56:44;99088.19;;;8.00;71.06
72587;BME280;60621;49.576;11.024;2023-04-09T02:57:46;99082.47;;;7.98;70.69
72587;BME280;60621;49.576;11.024;2023-04-09T02:58:47;99087.25;;;7.96;70.07
72587;BME280;60621;49.576;11.024;2023-04-09T02:59:52;99087.91;;;7.93;70.41
72587;BME280;60621;49.576;11.024;2023-04-09T03:00:53;99091.75;;;7.95;71.12
72587;BME280;60621;49.576;11.024;2023-04-09T03:01:55;99083.53;;;7.97;70.56
72587;BME280;60621;49.576;11.024;2023-04-09T03:02:56;99083.25;;;7.99;70.60
72587;BME280;60621;49.576;11.024;2023-04-09T03:03:59;99087.25;;;7.96;70.62
72587;BME280;60621;49.576;11.024;2023-04-09T03:05:01;99080.03;;;7.93;70.63
72587;BME280;60621;49.576;11.024;2023-04-09T03:06:03;99085.59;;;7.91;70.40
72587;BME280;60621;49.576;11.024;2023-04-09T03:07:05;99087.44;;;7.91;69.89
72587;BME280;60621;49.576;11.024;2023-04-09T03:08:07;99080.97;;;7.88;70.18
72587;BME280;60621;49.576;11.024;2023-04-09T03:09:08;99083.63;;;7.88;70.51
72587;BME280;60621;49.576;11.024;2023-04-09T03:10:10;99084.09;;;7.82;69.91
72587;BME280;60621;49.576;11.024;2023-04-09T03:11:11;99083.19;;;7.78;70.25
72587;BME280;60621;49.576;11.024;2023-04-09T03:12:13;99069.28;;;7.77;70.70
72587;BME280;60621;49.576;11.024;2023-04-09T03:13:15;99081.63;;;7.77;70.18
72587;BME280;60621;49.576;11.024;2023-04-09T03:14:17;99083.50;;;7.76;69.88
72587;BME280;60621;49.576;11.024;2023-04-09T03:15:18;99081.63;;;7.77;70.48
72587;BME280;60621;49.576;11.024;2023-04-09T03:16:20;99085.38;;;7.76;69.98
72587;BME280;60621;49.576;11.024;2023-04-09T03:17:22;99086.44;;;7.75;70.28
72587;BME280;60621;49.576;11.024;2023-04-09T03:18:27;99083.34;;;7.73;70.52
72587;BME280;60621;49.576;11.024;2023-04-09T03:19:29;99083.69;;;7.71;70.64
72587;BME280;60621;49.576;11.024;2023-04-09T03:20:31;99090.03;;;7.70;70.32
72587;BME280;60621;49.576;11.024;2023-04-09T03:21:33;99086.66;;;7.61;70.21
72587;BME280;60621;49.576;11.024;2023-04-09T03:22:38;99084.22;;;7.56;70.70
72587;BME280;60621;49.576;11.024;2023-04-09T03:23:39;99079.91;;;7.51;70.78
72587;BME280;60621;49.576;11.024;2023-04-09T03:24:41;99076.34;;;7.47;70.66
72587;BME280;60621;49.576;11.024;2023-04-09T03:25:43;99079.44;;;7.49;70.89
72587;BME280;60621;49.576;11.024;2023-04-09T03:26:44;99077.28;;;7.42;70.52
72587;BME280;60621;49.576;11.024;2023-04-09T03:27:46;99080.72;;;7.34;70.95
72587;BME280;60621;49.576;11.024;2023-04-09T03:28:47;99078.84;;;7.35;71.47
72587;BME280;60621;49.576;11.024;2023-04-09T03:29:49;99077.00;;;7.35;71.01
72587;BME280;60621;49.576;11.024;2023-04-09T03:30:50;99082.72;;;7.37;71.19
72587;BME280;60621;49.576;11.024;2023-04-09T03:31:53;99080.09;;;7.37;71.44
72587;BME280;60621;49.576;11.024;2023-04-09T03:32:54;99086.72;;;7.35;70.37
72587;BME280;60621;49.576;11.024;2023-04-09T03:33:56;99079.50;;;7.32;70.38
72587;BME280;60621;49.576;11.024;2023-04-09T03:34:57;99085.03;;;7.30;71.01
72587;BME280;60621;49.576;11.024;2023-04-09T03:35:59;99083.19;;;7.31;71.21
72587;BME280;60621;49.576;11.024;2023-04-09T03:37:00;99080.72;;;7.26;71.17
72587;BME280;60621;49.576;11.024;2023-04-09T03:38:02;99082.47;;;7.22;70.82
72587;BME280;60621;49.576;11.024;2023-04-09T03:39:03;99078.91;;;7.17;71.27
72587;BME280;60621;49.576;11.024;2023-04-09T03:40:05;99084.44;;;7.16;71.59
72587;BME280;60621;49.576;11.024;2023-04-09T03:41:07;99086.47;;;7.10;71.58
72587;BME280;60621;49.576;11.024;2023-04-09T03:42:08;99086.78;;;7.09;71.40
72587;BME280;60621;49.576;11.024;2023-04-09T03:43:10;99084.16;;;7.09;71.38
72587;BME280;60621;49.576;11.024;2023-04-09T03:44:11;99083.69;;;7.07;71.22
72587;BME280;60621;49.576;11.024;2023-04-09T03:45:13;99086.03;;;7.00;71.56
72587;BME280;60621;49.576;11.024;2023-04-09T03:46:15;99088.81;;;6.95;71.04
72587;BME280;60621;49.576;11.024;2023-04-09T03:47:18;99083.25;;;6.87;71.15
72587;BME280;60621;49.576;11.024;2023-04-09T03:48:19;99085.28;;;6.82;72.09
72587;BME280;60621;49.576;11.024;2023-04-09T03:49:20;99086.34;;;6.81;72.63
72587;BME280;60621;49.576;11.024;2023-04-09T03:50:22;99095.91;;;6.77;71.88
72587;BME280;60621;49.576;11.024;2023-04-09T03:51:24;99091.91;;;6.71;72.64
72587;BME280;60621;49.576;11.024;2023-04-09T03:52:25;99095.75;;;6.73;72.38
72587;BME280;60621;49.576;11.024;2023-04-09T03:53:27;99092.22;;;6.69;72.88
72587;BME280;60621;49.576;11.024;2023-04-09T03:54:29;99093.94;;;6.65;72.74
72587;BME280;60621;49.576;11.024;2023-04-09T03:55:30;99093.00;;;6.61;72.70
72587;BME280;60621;49.576;11.024;2023-04-09T03:56:32;99093.44;;;6.63;72.87
72587;BME280;60621;49.576;11.024;2023-04-09T03:57:33;99091.75;;;6.67;72.73
72587;BME280;60621;49.576;11.024;2023-04-09T03:58:36;99094.22;;;6.72;72.81
72587;BME280;60621;49.576;11.024;2023-04-09T03:59:37;99097.31;;;6.74;72.67
72587;BME280;60621;49.576;11.024;2023-04-09T04:00:39;99097.31;;;6.74;72.39
72587;BME280;60621;49.576;11.024;2023-04-09T04:01:40;99097.94;;;6.71;72.10
72587;BME280;60621;49.576;11.024;2023-04-09T04:02:42;99098.25;;;6.70;72.74
72587;BME280;60621;49.576;11.024;2023-04-09T04:03:44;99094.22;;;6.72;72.42
72587;BME280;60621;49.576;11.024;2023-04-09T04:04:46;99097.16;;;6.71;72.45
72587;BME280;60621;49.576;11.024;2023-04-09T04:05:48;99103.94;;;6.63;73.13
72587;BME280;60621;49.576;11.024;2023-04-09T04:06:50;99100.53;;;6.62;72.66
72587;BME280;60621;49.576;11.024;2023-04-09T04:07:52;99096.53;;;6.48;73.23
72587;BME280;60621;49.576;11.024;2023-04-09T04:08:53;99096.97;;;6.50;72.90
72587;BME280;60621;49.576;11.024;2023-04-09T04:09:55;99095.75;;;6.47;73.24
72587;BME280;60621;49.576;11.024;2023-04-09T04:11:03;99100.06;;;6.43;73.67
72587;BME280;60621;49.576;11.024;2023-04-09T04:12:05;99095.00;;;6.47;73.83
72587;BME280;60621;49.576;11.024;2023-04-09T04:13:06;99099.91;;;6.48;73.20
72587;BME280;60621;49.576;11.024;2023-04-09T04:14:11;99105.63;;;6.50;73.70
72587;BME280;60621;49.576;11.024;2023-04-09T04:15:13;99097.75;;;6.50;73.19
72587;BME280;60621;49.576;11.024;2023-04-09T04:16:14;99097.47;;;6.52;73.18
72587;BME280;60621;49.576;11.024;2023-04-09T04:17:16;99103.31;;;6.57;72.97
72587;BME280;60621;49.576;11.024;2023-04-09T04:18:17;99099.00;;;6.61;72.67
72587;BME280;60621;49.576;11.024;2023-04-09T04:19:19;99108.56;;;6.57;72.48
72587;BME280;60621;49.576;11.024;2023-04-09T04:20:21;99103.31;;;6.57;72.95
72587;BME280;60621;49.576;11.024;2023-04-09T04:21:22;99107.19;;;6.60;72.78
72587;BME280;60621;49.576;11.024;2023-04-09T04:22:23;99108.72;;;6.61;72.81
72587;BME280;60621;49.576;11.024;2023-04-09T04:23:26;99108.25;;;6.59;72.69
72587;BME280;60621;49.576;11.024;2023-04-09T04:24:28;99111.50;;;6.56;72.93
72587;BME280;60621;49.576;11.024;2023-04-09T04:25:30;99109.47;;;6.53;73.09
72587;BME280;60621;49.576;11.024;2023-04-09T04:26:31;99110.25;;;6.53;72.98
72587;BME280;60621;49.576;11.024;2023-04-09T04:27:33;99108.41;;;6.54;72.93
72587;BME280;60621;49.576;11.024;2023-04-09T04:28:35;99105.31;;;6.52;72.71
72587;BME280;60621;49.576;11.024;2023-04-09T04:29:37;99109.81;;;6.51;72.58
72587;BME280;60621;49.576;11.024;2023-04-09T04:30:42;99112.72;;;6.50;72.84
72587;BME280;60621;49.576;11.024;2023-04-09T04:31:43;99113.78;;;6.49;72.95
72587;BME280;60621;49.576;11.024;2023-04-09T04:32:45;99114.41;;;6.46;72.92
72587;BME280;60621;49.576;11.024;2023-04-09T04:33:46;99115.47;;;6.45;73.31
72587;BME280;60621;49.576;11.024;2023-04-09T04:34:49;99111.31;;;6.44;73.19
72587;BME280;60621;49.576;11.024;2023-04-09T04:35:50;99124.44;;;6.44;73.47
72587;BME280;60621;49.576;11.024;2023-04-09T04:36:52;99126.28;;;6.43;72.86
72587;BME280;60621;49.576;11.024;2023-04-09T04:37:53;99120.72;;;6.45;72.89
72587;BME280;60621;49.576;11.024;2023-04-09T04:38:55;99121.97;;;6.47;72.58
72587;BME280;60621;49.576;11.024;2023-04-09T04:39:57;99120.72;;;6.45;72.30
72587;BME280;60621;49.576;11.024;2023-04-09T04:40:58;99129.03;;;6.38;72.81
72587;BME280;60621;49.576;11.024;2023-04-09T04:42:00;99127.19;;;6.38;73.10
72587;BME280;60621;49.576;11.024;2023-04-09T04:43:01;99122.13;;;6.42;72.67
72587;BME280;60621;49.576;11.024;2023-04-09T04:44:03;99129.97;;;6.42;72.69
72587;BME280;60621;49.576;11.024;2023-04-09T04:45:05;99132.88;;;6.40;72.91
72587;BME280;60621;49.576;11.024;2023-04-09T04:46:07;99131.06;;;6.41;72.78
72587;BME280;60621;49.576;11.024;2023-04-09T04:47:08;99130.28;;;6.40;72.59
72587;BME280;60621;49.576;11.024;2023-04-09T04:48:10;99130.41;;;6.35;72.51
72587;BME280;60621;49.576;11.024;2023-04-09T04:49:11;99128.56;;;6.36;72.37
72587;BME280;60621;49.576;11.024;2023-04-09T04:50:13;99132.59;;;6.33;72.62
72587;BME280;60621;49.576;11.024;2023-04-09T04:51:14;99129.97;;;6.33;72.91
72587;BME280;60621;49.576;11.024;2023-04-09T04:52:16;99133.03;;;6.35;72.46
72587;BME280;60621;49.576;11.024;2023-04-09T04:53:18;99135.03;;;6.30;72.71
72587;BME280;60621;49.576;11.024;2023-04-09T04:54:19;99129.47;;;6.31;72.74
72587;BME280;60621;49.576;11.024;2023-04-09T04:55:21;99134.44;;;6.33;72.79
72587;BME280;60621;49.576;11.024;2023-04-09T04:56:22;99137.22;;;6.36;72.79
72587;BME280;60621;49.576;11.024;2023-04-09T04:57:24;99136.13;;;6.37;72.30
72587;BME280;60621;49.576;11.024;2023-04-09T04:58:25;99141.22;;;6.34;72.40
72587;BME280;60621;49.576;11.024;2023-04-09T04:59:27;99140.72;;;6.23;72.52
72587;BME280;60621;49.576;11.024;2023-04-09T05:00:28;99138.72;;;6.20;72.93
72587;BME280;60621;49.576;11.024;2023-04-09T05:01:30;99138.41;;;6.22;73.05
72587;BME280;60621;49.576;11.024;2023-04-09T05:02:32;99138.56;;;6.25;72.57
72587;BME280;60621;49.576;11.024;2023-04-09T05:03:33;99144.28;;;6.27;72.63
72587;BME280;60621;49.576;11.024;2023-04-09T05:04:35;99137.78;;;6.25;72.81
72587;BME280;60621;49.576;11.024;2023-04-09T05:05:37;99140.09;;;6.26;72.98
72587;BME280;60621;49.576;11.024;2023-04-09T05:06:38;99137.97;;;6.28;72.56
72587;BME280;60621;49.576;11.024;2023-04-09T05:07:40;99134.88;;;6.26;72.49
72587;BME280;60621;49.576;11.024;2023-04-09T05:08:41;99130.25;;;6.23;72.45
72587;BME280;60621;49.576;11.024;2023-04-09T05:09:43;99132.25;;;6.26;72.27
72587;BME280;60621;49.576;11.024;2023-04-09T05:10:45;99138.72;;;6.29;72.78
72587;BME280;60621;49.576;11.024;2023-04-09T05:11:47;99134.72;;;6.31;72.06
72587;BME280;60621;49.576;11.024;2023-04-09T05:12:48;99137.81;;;6.33;72.40
72587;BME280;60621;49.576;11.024;2023-04-09T05:13:50;99136.28;;;6.32;72.49
72587;BME280;60621;49.576;11.024;2023-04-09T05:14:51;99132.72;;;6.28;71.92
72587;BME280;60621;49.576;11.024;2023-04-09T05:15:53;99140.28;;;6.30;72.31
72587;BME280;60621;49.576;11.024;2023-04-09T05:16:55;99135.03;;;6.30;72.76
72587;BME280;60621;49.576;11.024;2023-04-09T05:17:57;99134.56;;;6.28;72.42
72587;BME280;60621;49.576;11.024;2023-04-09T05:18:58;99141.34;;;6.29;72.91
72587;BME280;60621;49.576;11.024;2023-04-09T05:20:00;99138.72;;;6.29;72.40
72587;BME280;60621;49.576;11.024;2023-04-09T05:21:01;99137.97;;;6.28;72.41
72587;BME280;60621;49.576;11.024;2023-04-09T05:22:03;99134.25;;;6.29;72.40
72587;BME280;60621;49.576;11.024;2023-04-09T05:23:05;99139.19;;;6.31;72.36
72587;BME280;60621;49.576;11.024;2023-04-09T05:24:06;99139.34;;;6.34;72.59
72587;BME280;60621;49.576;11.024;2023-04-09T05:25:08;99139.22;;;6.39;72.23
72587;BME280;60621;49.576;11.024;2023-04-09T05:26:11;99135.06;;;6.38;71.96
72587;BME280;60621;49.576;11.024;2023-04-09T05:27:12;99139.53;;;6.38;71.94
72587;BME280;60621;49.576;11.024;2023-04-09T05:28:14;99137.06;;;6.41;72.45
72587;BME280;60621;49.576;11.024;2023-04-09T05:29:17;99139.84;;;6.45;72.35
72587;BME280;60621;49.576;11.024;2023-04-09T05:30:18;99138.78;;;6.46;71.81
72587;BME280;60621;49.576;11.024;2023-04-09T05:31:20;99137.84;;;6.42;71.98
72587;BME280;60621;49.576;11.024;2023-04-09T05:32:21;99146.16;;;6.44;72.32
72587;BME280;60621;49.576;11.024;2023-04-09T05:33:23;99139.56;;;6.47;72.31
72587;BME280;60621;49.576;11.024;2023-04-09T05:34:24;99141.84;;;6.48;71.96
72587;BME280;60621;49.576;11.024;2023-04-09T05:35:26;99136.44;;;6.45;72.01
72587;BME280;60621;49.576;11.024;2023-04-09T05:36:27;99142.47;;;6.45;72.28